Nearby METAR Reports

KLNK - Lincoln, Nebraska, USA
Distance from station: WNW 8mi, 13km
Updated: Sun, 19-Nov-2017 3:54am CST
Clear
Clear
 Wind from SW
Wind: SW 3 mph , 6 km/h
Temperature: 27°F , -3°C
Dew Point: 21°F , -6°C
Humidity: 80%
Barometer: 30.25 inHg , 1024.4 hPa
Clouds: Clear
Visibility: 10 miles , 16 km
2017/11/19 09:54 KLNK 190954Z AUTO 23003KT 10SM CLR M03/M06 A3025 RMK AO2 SLP252 T10331056
KAHQ - Wahoo, Nebraska, USA
Distance from station: N 31mi, 49km
Updated: Sun, 19-Nov-2017 4:15am CST
Partly Cloudy
Partly Cloudy
 Wind from calm
Wind: Calm
Temperature: 23°F , -5°C
Dew Point: 19°F , -7°C
Humidity: 86%
Barometer: 30.21 inHg , 1023 hPa
Clouds: Partly Cloudy
Visibility: 10 miles , 16 km
Cloud details: Partly Cloudy 11000 ft
2017/11/19 10:15 KAHQ 191015Z AUTO 00000KT 10SM SCT110 M05/M07 A3021 RMK AO2 T10481068
 
KBIE - Beatrice Municip, Nebraska, USA
Distance from station: S 36mi, 57km
Updated: Sun, 19-Nov-2017 4:15am CST
Clear
Clear
 Wind from calm
Wind: Calm
Temperature: 25°F , -4°C
Dew Point: 23°F , -5°C
Humidity: 93%
Barometer: 30.25 inHg , 1024.4 hPa
Clouds: Clear
Visibility: 10 miles , 16 km
2017/11/19 10:15 KBIE 191015Z AUTO 00000KT 10SM CLR M04/M05 A3025 RMK AO2 T10391049
KMLE - Omaha/Millard, Nebraska, USA
Distance from station: NE 39mi, 63km
Updated: Sun, 19-Nov-2017 4:15am CST
Clear
Clear
 Wind from NW
Wind: NW 3 mph , 6 km/h
Temperature: 28°F , -2°C
Dew Point: 23°F , -5°C
Humidity: 80%
Barometer: 30.22 inHg , 1023.4 hPa
Clouds: Clear
Visibility: 10 miles , 16 km
2017/11/19 10:15 KMLE 191015Z AUTO 31003KT 10SM CLR M02/M05 A3022 RMK AO2 T10201049
 
KPMV - Plattsmouth Muni, Nebraska, USA
Distance from station: ENE 39mi, 63km
Updated: Sun, 19-Nov-2017 4:15am CST
Clear
Clear
 Wind from W
Wind: W 6 mph , 9 km/h
Temperature: 27°F , -3°C
Wind Chill: 20°F , -7°C
Dew Point: 23°F , -5°C
Humidity: 86%
Barometer: 30.22 inHg , 1023.4 hPa
Clouds: Clear
Visibility: 10 miles , 16 km
2017/11/19 10:15 KPMV 191015Z AUTO 27005KT 10SM CLR M03/M05 A3022 RMK AO2 T10281055
KAFK - Nebraska City, Nebraska, USA
Distance from station: ESE 43mi, 69km
Updated: Sun, 19-Nov-2017 4:15am CST
Clear
Clear
 Wind from NW
Wind: NW 5 mph , 7 km/h
Temperature: 28°F , -2°C
Wind Chill: 22°F , -6°C
Dew Point: 23°F , -5°C
Humidity: 80%
Barometer: 30.23 inHg , 1023.7 hPa
Clouds: Clear
Visibility: 10 miles , 16 km
2017/11/19 10:15 KAFK 191015Z AUTO 31004KT 10SM CLR M02/M05 A3023 RMK AO2 T10251053
 
KOFF - Offutt Afb/Belle, Nebraska, USA
Distance from station: ENE 44mi, 70km
Updated: Sun, 19-Nov-2017 3:56am CST
Clear
Clear
 Wind from WNW
Wind: WNW 9 mph , 15 km/h
Temperature: 25°F , -4°C
Wind Chill: 16°F , -9°C
Dew Point: 19°F , -7°C
Humidity: 80%
Barometer: 30.21 inHg , 1023 hPa
Clouds: Clear
Visibility: 10 miles , 16 km
2017/11/19 09:56 KOFF 190956Z AUTO 30008KT 10SM CLR M04/M07 A3021 RMK AO2 SLP244 T10381066 $
KFET - Fremont Muni Arp, Nebraska, USA
Distance from station: N 46mi, 74km
Updated: Sun, 19-Nov-2017 4:15am CST
Clear
Clear
 Wind from calm
Wind: Calm
Temperature: 23°F , -5°C
Dew Point: 19°F , -7°C
Humidity: 86%
Barometer: 30.20 inHg , 1022.7 hPa
Clouds: Clear
Visibility: 10 miles , 16 km
2017/11/19 10:15 KFET 191015Z AUTO 00000KT 10SM CLR M05/M07 A3020 RMK AO2 T10461066
 
KBTA - Blair Muni, Nebraska, USA
Distance from station: NNE 51mi, 82km
Updated: Sun, 19-Nov-2017 4:15am CST
Clear
Clear
 Wind from W
Wind: W 5 mph , 7 km/h
Temperature: 27°F , -3°C
Wind Chill: 21°F , -6°C
Dew Point: 21°F , -6°C
Humidity: 80%
Barometer: 30.20 inHg , 1022.7 hPa
Clouds: Clear
Visibility: 10 miles , 16 km
2017/11/19 10:15 KBTA 191015Z AUTO 28004KT 10SM CLR M03/M06 A3020 RMK AO2 T10311060
KJYR - York, Nebraska, USA
Distance from station: W 52mi, 84km
Updated: Sun, 19-Nov-2017 3:55am CST
Clear
Clear
 Wind from calm
Wind: Calm
Temperature: 25°F , -4°C
Dew Point: 25°F , -4°C
Humidity: 100%
Barometer: 30.23 inHg , 1023.7 hPa
Clouds: Clear
Visibility: 10 miles , 16 km
2017/11/19 09:55 KJYR 190955Z AUTO 00000KT 10SM CLR M04/M04 A3023 RMK AO2
 
KOMA - Omaha/Eppley, Nebraska, USA
Distance from station: NE 53mi, 85km
Updated: Sun, 19-Nov-2017 3:52am CST
Clear
Clear
 Wind from NNW
Wind: NNW 5 mph , 7 km/h
Temperature: 27°F , -3°C
Wind Chill: 21°F , -6°C
Dew Point: 19°F , -7°C
Humidity: 74%
Barometer: 30.23 inHg , 1023.7 hPa
Clouds: Clear
Visibility: 10 miles , 16 km
2017/11/19 09:52 KOMA 190952Z 34004KT 10SM CLR M03/M07 A3023 RMK AO2 SLP244 T10331072
KOLU - Columbus Muni, Nebraska, USA
Distance from station: NW 58mi, 93km
Updated: Sun, 19-Nov-2017 3:56am CST
Clear
Clear
 Wind from calm
Wind: Calm
Temperature: 18°F , -8°C
Dew Point: 16°F , -9°C
Humidity: 93%
Barometer: 30.22 inHg , 1023.4 hPa
Clouds: Clear
Visibility: 10 miles , 16 km
2017/11/19 09:56 KOLU 190956Z AUTO 00000KT 10SM CLR M08/M09 A3022 RMK AO2 SLP251 T10781094 FZRANO